createdAt,value
2019-03-22T00:00:04.265Z,51.50
2019-03-22T00:01:04.235Z,52.80
2019-03-22T00:02:04.155Z,52.70
2019-03-22T00:03:04.104Z,50.70
2019-03-22T00:04:04.054Z,51.70
2019-03-22T00:05:03.994Z,51.90
2019-03-22T00:06:03.966Z,50.80
2019-03-22T00:07:03.889Z,49.80
2019-03-22T00:08:03.842Z,49.50
2019-03-22T00:09:03.786Z,52.60
2019-03-22T00:10:03.728Z,51.10
2019-03-22T00:11:03.699Z,53.90
2019-03-22T00:12:04.376Z,60.60
2019-03-22T00:13:03.569Z,50.20
2019-03-22T00:14:03.519Z,51.40
2019-03-22T00:15:03.462Z,50.90
2019-03-22T00:16:03.432Z,49.70
2019-03-22T00:17:03.355Z,49.30
2019-03-22T00:18:03.303Z,50.70
2019-03-22T00:19:03.250Z,50.70
2019-03-22T00:20:03.196Z,52.40
2019-03-22T00:21:03.167Z,52.50
2019-03-22T00:22:03.091Z,50.50
2019-03-22T00:23:03.044Z,55.00
2019-03-22T00:24:02.985Z,53.00
2019-03-22T00:25:02.930Z,53.50
2019-03-22T00:26:02.901Z,53.10
2019-03-22T00:27:02.823Z,53.50
2019-03-22T00:28:02.770Z,57.20
2019-03-22T00:29:02.717Z,53.60
2019-03-22T00:30:02.666Z,56.60
2019-03-22T00:31:02.633Z,53.90
2019-03-22T00:32:02.559Z,56.00
2019-03-22T00:33:02.504Z,53.80
2019-03-22T00:34:02.453Z,56.10
2019-03-22T00:35:02.398Z,54.20
2019-03-22T00:36:02.367Z,59.80
2019-03-22T00:37:02.298Z,61.90
2019-03-22T00:38:02.239Z,66.00
2019-03-22T00:39:02.184Z,67.90
2019-03-22T00:40:02.131Z,61.90
2019-03-22T00:41:02.101Z,61.70
2019-03-22T00:42:02.027Z,59.30
2019-03-22T00:43:01.971Z,57.10
2019-03-22T00:44:01.916Z,55.90
2019-03-22T00:45:01.867Z,57.90
2019-03-22T00:46:01.836Z,57.90
2019-03-22T00:47:01.760Z,58.10
2019-03-22T00:48:01.705Z,63.30
2019-03-22T00:49:01.653Z,66.90
2019-03-22T00:50:01.599Z,62.00
2019-03-22T00:51:01.547Z,63.20
2019-03-22T00:52:01.549Z,59.50
2019-03-22T00:53:01.440Z,56.30
2019-03-22T00:54:01.387Z,63.40
2019-03-22T00:55:01.336Z,61.60
2019-03-22T00:56:01.278Z,58.40
2019-03-22T00:57:01.251Z,56.70
2019-03-22T00:58:01.176Z,57.70
2019-03-22T00:59:01.121Z,56.90
2019-03-22T01:00:01.069Z,57.40
2019-03-22T01:01:01.015Z,57.90
2019-03-22T01:02:00.985Z,57.70
2019-03-22T01:03:00.911Z,56.80
2019-03-22T01:04:00.858Z,58.40
2019-03-22T01:05:00.805Z,57.90
2019-03-22T01:06:00.749Z,59.40
2019-03-22T01:07:00.725Z,58.80
2019-03-22T01:08:00.646Z,59.80
2019-03-22T01:09:00.592Z,62.20
2019-03-22T01:10:00.538Z,61.10
2019-03-22T01:11:00.486Z,60.80
2019-03-22T01:12:00.454Z,58.70
2019-03-22T01:13:00.377Z,61.30
2019-03-22T01:14:00.324Z,61.40
2019-03-22T01:15:00.334Z,61.10
2019-03-22T01:16:00.218Z,61.70
2019-03-22T01:17:00.189Z,59.20
2019-03-22T01:18:00.117Z,59.80
2019-03-22T01:19:00.062Z,61.50
2019-03-22T01:20:00.004Z,61.90
2019-03-22T01:20:59.953Z,60.30
2019-03-22T01:21:59.922Z,60.10
2019-03-22T01:22:59.846Z,59.70
2019-03-22T01:24:00.041Z,60.40
2019-03-22T01:24:59.740Z,59.10
2019-03-22T01:25:59.687Z,57.40
2019-03-22T01:26:59.657Z,59.30
2019-03-22T01:27:59.584Z,58.70
2019-03-22T01:28:59.526Z,59.60
2019-03-22T01:29:59.475Z,60.40
2019-03-22T01:30:59.425Z,59.60
2019-03-22T01:31:59.389Z,59.00
2019-03-22T01:32:59.315Z,60.80
2019-03-22T01:33:59.265Z,61.30
2019-03-22T01:34:59.209Z,59.60
2019-03-22T01:35:59.153Z,60.80
2019-03-22T01:36:59.125Z,60.80
2019-03-22T01:37:59.047Z,60.10
2019-03-22T01:38:58.995Z,60.20
2019-03-22T01:39:58.940Z,61.40
2019-03-22T01:40:58.887Z,62.00
2019-03-22T01:41:58.858Z,60.20
2019-03-22T01:42:58.781Z,59.50
2019-03-22T01:43:58.729Z,61.30
2019-03-22T01:44:58.671Z,59.00
2019-03-22T01:45:58.620Z,58.20
2019-03-22T01:46:58.590Z,59.50
2019-03-22T01:47:58.513Z,59.60
2019-03-22T01:48:58.459Z,59.50
2019-03-22T01:49:58.406Z,58.00
2019-03-22T01:50:58.414Z,58.50
2019-03-22T01:51:58.323Z,59.50
2019-03-22T01:52:58.244Z,59.40
2019-03-22T01:53:58.192Z,58.40
2019-03-22T01:54:58.139Z,60.00
2019-03-22T01:55:58.088Z,57.90
2019-03-22T01:56:58.053Z,59.80
2019-03-22T01:57:57.976Z,59.30
2019-03-22T01:58:57.924Z,58.70
2019-03-22T01:59:57.870Z,57.30
2019-03-22T02:00:57.818Z,58.00
2019-03-22T02:01:57.787Z,55.80
2019-03-22T02:02:57.709Z,53.30
2019-03-22T02:03:57.656Z,54.40
2019-03-22T02:04:57.603Z,54.80
2019-03-22T02:05:57.571Z,55.30
2019-03-22T02:06:57.496Z,53.80
2019-03-22T02:07:57.464Z,52.10
2019-03-22T02:08:57.387Z,55.20
2019-03-22T02:09:57.333Z,55.80
2019-03-22T02:10:57.280Z,57.20
2019-03-22T02:11:57.226Z,56.80
2019-03-22T02:12:57.202Z,54.40
2019-03-22T02:13:57.120Z,54.30
2019-03-22T02:14:57.065Z,55.70
2019-03-22T02:15:57.014Z,53.80
2019-03-22T02:16:56.957Z,54.00
2019-03-22T02:17:56.925Z,54.10
2019-03-22T02:18:56.851Z,54.60
2019-03-22T02:19:56.796Z,55.10
2019-03-22T02:20:56.742Z,55.70
2019-03-22T02:21:56.689Z,53.90
2019-03-22T02:22:56.658Z,54.30
2019-03-22T02:23:56.582Z,53.60
2019-03-22T02:24:56.528Z,54.60
2019-03-22T02:25:56.475Z,55.80
2019-03-22T02:26:56.422Z,55.00
2019-03-22T02:28:04.039Z,54.90
2019-03-22T02:28:56.311Z,53.60
2019-03-22T02:29:56.258Z,51.90
2019-03-22T02:30:56.207Z,48.40
2019-03-22T02:31:56.157Z,49.00
2019-03-22T02:32:56.130Z,50.00
2019-03-22T02:33:56.045Z,49.50
2019-03-22T02:34:56.000Z,49.50
2019-03-22T02:35:55.938Z,48.50
2019-03-22T02:36:55.885Z,49.30
2019-03-22T02:37:55.854Z,51.50
2019-03-22T02:38:55.775Z,50.70
2019-03-22T02:39:55.726Z,50.10
2019-03-22T02:40:55.667Z,50.70
2019-03-22T02:41:55.613Z,50.50
2019-03-22T02:42:55.592Z,49.60
2019-03-22T02:43:55.505Z,50.10
2019-03-22T02:44:55.458Z,51.70
2019-03-22T02:45:55.397Z,41.20
2019-03-22T02:46:55.342Z,41.50
2019-03-22T02:47:55.313Z,42.90
2019-03-22T02:48:55.236Z,43.20
2019-03-22T02:49:55.181Z,41.10
2019-03-22T02:50:56.292Z,38.90
2019-03-22T02:51:55.071Z,44.30
2019-03-22T02:52:55.042Z,46.50
2019-03-22T02:53:54.970Z,44.30
2019-03-22T02:54:54.930Z,44.20
2019-03-22T02:55:54.949Z,49.50
2019-03-22T02:56:54.803Z,48.30
2019-03-22T02:57:54.776Z,52.50
2019-03-22T02:58:54.695Z,50.90
2019-03-22T02:59:54.641Z,50.50
2019-03-22T03:00:54.591Z,51.50
2019-03-22T03:01:54.532Z,53.00
2019-03-22T03:02:54.503Z,52.10
2019-03-22T03:03:54.451Z,54.40
2019-03-22T03:04:54.370Z,55.90
2019-03-22T03:05:54.334Z,54.70
2019-03-22T03:06:54.271Z,55.10
2019-03-22T03:07:54.230Z,55.90
2019-03-22T03:08:54.160Z,55.10
2019-03-22T03:09:54.102Z,54.10
2019-03-22T03:10:54.058Z,55.10
2019-03-22T03:11:53.995Z,54.50
2019-03-22T03:12:54.065Z,52.70
2019-03-22T03:13:53.901Z,50.10
2019-03-22T03:14:53.848Z,53.50
2019-03-22T03:15:53.776Z,54.80
2019-03-22T03:16:53.740Z,56.30
2019-03-22T03:17:53.690Z,51.30
2019-03-22T03:18:53.620Z,49.50
2019-03-22T03:19:53.561Z,52.20
2019-03-22T03:20:53.506Z,55.20
2019-03-22T03:21:53.454Z,51.10
2019-03-22T03:22:53.425Z,53.20
2019-03-22T03:24:01.178Z,53.10
2019-03-22T03:24:53.331Z,55.40
2019-03-22T03:25:53.307Z,57.20
2019-03-22T03:26:53.260Z,55.90
2019-03-22T03:27:53.416Z,55.80
2019-03-22T03:28:53.150Z,55.60
2019-03-22T03:29:53.062Z,53.80
2019-03-22T03:30:53.028Z,55.50
2019-03-22T03:31:52.999Z,55.60
2019-03-22T03:32:52.913Z,54.60
2019-03-22T03:33:52.956Z,52.80
2019-03-22T03:34:52.858Z,51.10
2019-03-22T03:35:52.744Z,52.50
2019-03-22T03:36:52.718Z,49.50
2019-03-22T03:37:52.632Z,51.70
2019-03-22T03:38:52.622Z,53.20
2019-03-22T03:39:52.560Z,54.50
2019-03-22T03:40:52.463Z,53.50
2019-03-22T03:41:52.418Z,52.40
2019-03-22T03:42:52.372Z,53.50
2019-03-22T03:43:52.350Z,56.20
2019-03-22T03:44:52.248Z,57.40
2019-03-22T03:45:52.193Z,61.40
2019-03-22T03:46:52.168Z,63.40
2019-03-22T03:47:52.122Z,66.20
2019-03-22T03:48:52.088Z,56.60
2019-03-22T03:49:52.006Z,56.60
2019-03-22T03:50:51.953Z,60.40
2019-03-22T03:51:51.888Z,66.50
2019-03-22T03:52:51.805Z,59.40
2019-03-22T03:53:51.814Z,59.10
2019-03-22T03:54:51.725Z,51.90
2019-03-22T03:55:51.659Z,52.40
2019-03-22T03:56:51.602Z,48.50
2019-03-22T03:57:51.563Z,50.00
2019-03-22T03:58:52.922Z,52.10
2019-03-22T03:59:51.455Z,55.40
2019-03-22T04:00:51.404Z,61.30
2019-03-22T04:01:51.345Z,64.40
2019-03-22T04:02:51.280Z,60.60
2019-03-22T04:03:51.233Z,55.70
2019-03-22T04:04:51.173Z,56.40
2019-03-22T04:05:51.110Z,54.90
2019-03-22T04:06:51.050Z,53.50
2019-03-22T04:07:50.996Z,52.60
2019-03-22T04:08:51.020Z,54.10
2019-03-22T04:09:50.892Z,55.60
2019-03-22T04:10:50.844Z,52.20
2019-03-22T04:11:50.783Z,53.00
2019-03-22T04:12:50.730Z,52.30
2019-03-22T04:13:50.716Z,55.60
2019-03-22T04:14:50.628Z,52.80
2019-03-22T04:15:50.565Z,52.60
2019-03-22T04:16:50.524Z,54.10
2019-03-22T04:17:50.477Z,52.20
2019-03-22T04:18:50.451Z,47.90
2019-03-22T04:19:50.367Z,48.60
2019-03-22T04:20:50.316Z,46.80
2019-03-22T04:21:50.270Z,43.60
2019-03-22T04:22:50.200Z,44.90
2019-03-22T04:23:50.210Z,45.70
2019-03-22T04:24:50.090Z,47.90
2019-03-22T04:25:50.035Z,47.90
2019-03-22T04:26:49.974Z,46.60
2019-03-22T04:27:49.919Z,48.20
2019-03-22T04:28:49.924Z,49.30
2019-03-22T04:29:49.820Z,49.70
2019-03-22T04:30:49.772Z,49.90
2019-03-22T04:31:49.713Z,49.90
2019-03-22T04:32:49.646Z,50.30
2019-03-22T04:33:49.647Z,49.20
2019-03-22T04:34:49.559Z,50.10
2019-03-22T04:35:49.512Z,49.30
2019-03-22T04:36:49.445Z,48.60
2019-03-22T04:37:49.425Z,47.70
2019-03-22T04:38:49.368Z,48.30
2019-03-22T04:39:49.276Z,49.30
2019-03-22T04:40:49.218Z,49.20
2019-03-22T04:41:49.199Z,48.00
2019-03-22T04:42:49.126Z,48.80
2019-03-22T04:43:49.078Z,48.40
2019-03-22T04:44:48.998Z,47.90
2019-03-22T04:45:48.950Z,49.80
2019-03-22T04:46:48.896Z,49.00
2019-03-22T04:47:48.838Z,49.40
2019-03-22T04:48:48.809Z,48.70
2019-03-22T04:49:48.715Z,47.80
2019-03-22T04:50:48.672Z,47.20
2019-03-22T04:51:48.613Z,47.10
2019-03-22T04:52:48.579Z,47.00
2019-03-22T04:53:48.500Z,52.50
2019-03-22T04:54:48.505Z,53.00
2019-03-22T04:55:48.414Z,52.10
2019-03-22T04:56:48.335Z,51.10
2019-03-22T04:57:48.283Z,52.60
2019-03-22T04:58:48.231Z,51.50
2019-03-22T04:59:48.201Z,52.80
2019-03-22T05:00:48.158Z,51.50
2019-03-22T05:01:48.079Z,51.20
2019-03-22T05:02:48.043Z,49.50
2019-03-22T05:03:47.966Z,50.80
2019-03-22T05:04:47.930Z,52.30
2019-03-22T05:05:47.862Z,50.90
2019-03-22T05:06:47.793Z,52.30
2019-03-22T05:07:47.758Z,52.60
2019-03-22T05:08:47.683Z,53.10
2019-03-22T05:09:47.658Z,52.30
2019-03-22T05:10:47.579Z,50.40
2019-03-22T05:11:47.525Z,51.90
2019-03-22T05:12:47.464Z,52.90
2019-03-22T05:13:47.412Z,53.30
2019-03-22T05:14:47.389Z,51.70
2019-03-22T05:15:47.350Z,50.00
2019-03-22T05:16:47.256Z,49.80
2019-03-22T05:17:47.212Z,50.30
2019-03-22T05:18:47.152Z,50.00
2019-03-22T05:19:47.112Z,48.60
2019-03-22T05:20:47.033Z,48.90
2019-03-22T05:21:46.991Z,49.00
2019-03-22T05:22:46.923Z,49.80
2019-03-22T05:23:46.879Z,49.00
2019-03-22T05:24:46.855Z,50.10
2019-03-22T05:25:46.769Z,49.60
2019-03-22T05:26:46.719Z,47.40
2019-03-22T05:27:46.664Z,47.00
2019-03-22T05:28:46.626Z,45.90
2019-03-22T05:29:46.582Z,47.20
2019-03-22T05:30:46.515Z,47.10
2019-03-22T05:31:46.471Z,46.90
2019-03-22T05:32:46.396Z,46.70
2019-03-22T05:33:46.330Z,43.90
2019-03-22T05:34:46.322Z,43.20
2019-03-22T05:35:46.218Z,42.80
2019-03-22T05:36:46.166Z,43.60
2019-03-22T05:37:46.117Z,43.80
2019-03-22T05:38:46.051Z,42.30
2019-03-22T05:39:46.058Z,42.50
2019-03-22T05:40:45.964Z,45.00
2019-03-22T05:41:45.992Z,43.50
2019-03-22T05:42:45.859Z,46.20
2019-03-22T05:43:45.782Z,42.60
2019-03-22T05:44:45.780Z,48.10
2019-03-22T05:45:45.719Z,48.70
2019-03-22T05:46:45.630Z,46.60
2019-03-22T05:47:45.556Z,45.00
2019-03-22T05:48:45.586Z,49.30
2019-03-22T05:49:45.535Z,56.40
2019-03-22T05:50:45.431Z,56.20
2019-03-22T05:51:45.351Z,54.10
2019-03-22T05:52:45.317Z,55.20
2019-03-22T05:53:45.251Z,51.50
2019-03-22T05:54:45.210Z,48.60
2019-03-22T05:55:45.130Z,46.60
2019-03-22T05:56:45.089Z,49.40
2019-03-22T05:57:45.165Z,50.60
2019-03-22T05:58:45.012Z,51.60
2019-03-22T05:59:44.959Z,50.70
2019-03-22T06:00:44.865Z,49.30
2019-03-22T06:01:45.426Z,49.60
2019-03-22T06:02:44.776Z,51.90
2019-03-22T06:03:44.702Z,53.10
2019-03-22T06:04:44.673Z,55.20
2019-03-22T06:05:44.603Z,51.50
2019-03-22T06:06:44.597Z,49.50
2019-03-22T06:07:44.487Z,48.50
2019-03-22T06:08:44.423Z,54.30
2019-03-22T06:09:44.425Z,51.10
2019-03-22T06:10:44.322Z,49.10
2019-03-22T06:11:44.285Z,48.30
2019-03-22T06:12:44.220Z,44.00
2019-03-22T06:13:44.518Z,46.00
2019-03-22T06:14:44.141Z,44.90
2019-03-22T06:15:44.083Z,45.40
2019-03-22T06:16:43.990Z,45.40
2019-03-22T06:17:51.623Z,49.00
2019-03-22T06:18:43.891Z,48.30
2019-03-22T06:19:43.834Z,48.80
2019-03-22T06:20:43.797Z,49.90
2019-03-22T06:21:43.748Z,50.90
2019-03-22T06:22:43.678Z,51.90
2019-03-22T06:23:43.644Z,52.80
2019-03-22T06:24:43.564Z,53.30
2019-03-22T06:25:43.564Z,52.50
2019-03-22T06:26:43.457Z,53.90
2019-03-22T06:27:43.403Z,50.40
2019-03-22T06:28:43.348Z,52.40
2019-03-22T06:29:53.686Z,50.90
2019-03-22T06:30:43.297Z,49.30
2019-03-22T06:31:43.195Z,50.40
2019-03-22T06:32:43.264Z,54.40
2019-03-22T06:33:43.123Z,52.80
2019-03-22T06:34:43.037Z,51.10
2019-03-22T06:35:43.055Z,50.20
2019-03-22T06:36:42.982Z,50.60
2019-03-22T06:37:42.883Z,50.70
2019-03-22T06:38:42.812Z,50.50
2019-03-22T06:39:42.762Z,48.10
2019-03-22T06:40:42.834Z,45.70
2019-03-22T06:41:42.652Z,46.00
2019-03-22T06:42:42.612Z,47.20
2019-03-22T06:43:42.554Z,47.50
2019-03-22T06:44:42.497Z,47.40
2019-03-22T06:45:42.492Z,49.70
2019-03-22T06:46:42.388Z,50.10
2019-03-22T06:47:42.336Z,49.80
2019-03-22T06:48:42.286Z,48.00
2019-03-22T06:49:42.257Z,44.80
2019-03-22T06:50:42.202Z,45.70
2019-03-22T06:51:42.188Z,46.30
2019-03-22T06:52:42.095Z,45.70
2019-03-22T06:53:42.066Z,47.10
2019-03-22T06:54:42.025Z,45.50
2019-03-22T06:55:41.988Z,46.10
2019-03-22T06:56:41.865Z,45.60
2019-03-22T06:57:41.885Z,45.40
2019-03-22T06:58:41.771Z,46.40
2019-03-22T06:59:41.709Z,44.20
2019-03-22T07:00:41.676Z,44.00
2019-03-22T07:01:41.598Z,43.00
2019-03-22T07:02:41.564Z,42.60
2019-03-22T07:03:41.489Z,42.70
2019-03-22T07:04:41.464Z,42.10
2019-03-22T07:05:41.438Z,42.40
2019-03-22T07:06:41.332Z,43.70
2019-03-22T07:07:41.297Z,43.00
2019-03-22T07:08:41.239Z,42.30
2019-03-22T07:09:41.183Z,43.30
2019-03-22T07:10:41.175Z,43.70
2019-03-22T07:11:41.964Z,43.80
2019-03-22T07:12:41.034Z,44.70
2019-03-22T07:13:40.974Z,45.80
2019-03-22T07:14:40.930Z,43.00
2019-03-22T07:15:40.939Z,40.50
2019-03-22T07:16:40.821Z,40.50
2019-03-22T07:17:40.764Z,43.30
2019-03-22T07:18:40.721Z,43.10
2019-03-22T07:19:40.670Z,41.90
2019-03-22T07:20:40.645Z,40.70
2019-03-22T07:21:40.576Z,40.30
2019-03-22T07:22:40.506Z,41.70
2019-03-22T07:23:40.463Z,40.50
2019-03-22T07:24:40.408Z,40.00
2019-03-22T07:25:40.379Z,41.50
2019-03-22T07:26:40.323Z,40.60
2019-03-22T07:27:40.271Z,41.80
2019-03-22T07:28:40.232Z,39.30
2019-03-22T07:29:40.145Z,40.30
2019-03-22T07:30:40.118Z,40.40
2019-03-22T07:31:40.109Z,40.40
2019-03-22T07:32:39.996Z,39.80
2019-03-22T07:33:39.962Z,40.40
2019-03-22T07:34:39.910Z,40.20
2019-03-22T07:35:39.848Z,40.20
2019-03-22T07:36:39.820Z,41.20
2019-03-22T07:37:39.753Z,41.60
2019-03-22T07:38:39.680Z,40.70
2019-03-22T07:39:39.627Z,41.40
2019-03-22T07:40:39.598Z,40.10
2019-03-22T07:41:39.565Z,39.20
2019-03-22T07:42:39.490Z,38.30
2019-03-22T07:43:39.426Z,37.80
2019-03-22T07:44:39.375Z,37.40
2019-03-22T07:45:39.342Z,38.00
2019-03-22T07:46:39.302Z,36.40
2019-03-22T07:47:39.215Z,35.90
2019-03-22T07:48:39.171Z,37.20
2019-03-22T07:49:39.140Z,35.60
2019-03-22T07:50:39.067Z,34.50
2019-03-22T07:51:39.054Z,32.60
2019-03-22T07:52:38.973Z,31.50
2019-03-22T07:53:38.942Z,31.20
2019-03-22T07:54:38.893Z,31.40
2019-03-22T07:55:38.828Z,31.80
2019-03-22T07:56:38.795Z,30.80
2019-03-22T07:57:38.719Z,29.90
2019-03-22T07:58:38.681Z,29.00
2019-03-22T07:59:38.634Z,27.00
2019-03-22T08:00:38.590Z,25.90
2019-03-22T08:01:38.582Z,22.80
2019-03-22T08:02:38.471Z,22.90
2019-03-22T08:03:38.410Z,22.40
2019-03-22T08:04:38.367Z,20.90
2019-03-22T08:05:38.322Z,20.30
2019-03-22T08:06:38.307Z,20.20
2019-03-22T08:07:38.231Z,19.60
2019-03-22T08:08:38.160Z,19.00
2019-03-22T08:09:38.168Z,17.30
2019-03-22T08:10:38.070Z,16.90
2019-03-22T08:11:38.039Z,15.70
2019-03-22T08:12:37.961Z,15.90
2019-03-22T08:13:37.930Z,16.30
2019-03-22T08:14:37.869Z,15.40
2019-03-22T08:15:37.815Z,15.70
2019-03-22T08:16:37.861Z,15.70
2019-03-22T08:17:37.751Z,15.00
2019-03-22T08:18:37.665Z,14.10
2019-03-22T08:19:37.616Z,14.10
2019-03-22T08:20:38.870Z,13.80
2019-03-22T08:21:37.551Z,15.10
2019-03-22T08:22:37.474Z,14.40
2019-03-22T08:23:37.509Z,15.00
2019-03-22T08:24:37.366Z,14.70
2019-03-22T08:25:37.315Z,14.40
2019-03-22T08:26:37.290Z,14.20
2019-03-22T08:27:37.211Z,13.70
2019-03-22T08:28:37.200Z,13.70
2019-03-22T08:29:37.115Z,14.40
2019-03-22T08:30:42.997Z,14.30
2019-03-22T08:31:37.058Z,14.00
2019-03-22T08:32:36.985Z,13.60
2019-03-22T08:33:36.937Z,13.90
2019-03-22T08:34:36.909Z,14.20
2019-03-22T08:35:36.832Z,13.60
2019-03-22T08:36:36.827Z,13.50
2019-03-22T08:37:36.731Z,13.90
2019-03-22T08:38:36.714Z,12.90
2019-03-22T08:39:36.617Z,14.00
2019-03-22T08:40:36.588Z,13.50
2019-03-22T08:41:36.595Z,13.50
2019-03-22T08:42:36.466Z,13.70
2019-03-22T08:43:36.424Z,14.20
2019-03-22T08:44:36.382Z,14.40
2019-03-22T08:45:36.333Z,14.50
2019-03-22T08:46:36.303Z,13.90
2019-03-22T08:47:36.215Z,13.50
2019-03-22T08:48:36.172Z,13.80
2019-03-22T08:49:36.215Z,13.30
2019-03-22T08:50:36.090Z,13.40
2019-03-22T08:51:36.056Z,14.10
2019-03-22T08:52:35.975Z,14.70
2019-03-22T08:53:35.992Z,13.60
2019-03-22T08:54:38.149Z,13.30
2019-03-22T08:55:35.828Z,12.30
2019-03-22T08:56:36.337Z,11.40
2019-03-22T08:57:35.737Z,12.10
2019-03-22T08:58:35.688Z,12.10
2019-03-22T08:59:35.660Z,13.50
2019-03-22T09:00:39.581Z,13.50
2019-03-22T09:01:35.560Z,13.10
2019-03-22T09:02:35.516Z,12.70
2019-03-22T09:03:35.465Z,12.60
2019-03-22T09:04:35.403Z,12.60
2019-03-22T09:05:35.337Z,12.90
2019-03-22T09:06:35.290Z,13.10
2019-03-22T09:07:35.286Z,13.10
2019-03-22T09:08:35.205Z,13.20
2019-03-22T09:09:41.340Z,13.20
2019-03-22T09:10:35.102Z,13.20
2019-03-22T09:11:35.080Z,13.70
2019-03-22T09:12:35.054Z,12.90
2019-03-22T09:13:34.982Z,13.40
2019-03-22T09:14:34.938Z,13.90
2019-03-22T09:15:41.061Z,14.20
2019-03-22T09:16:34.877Z,13.50
2019-03-22T09:17:34.774Z,12.50
2019-03-22T09:18:34.710Z,12.00
2019-03-22T09:19:34.663Z,11.30
2019-03-22T09:20:34.650Z,11.60
2019-03-22T09:21:34.601Z,12.60
2019-03-22T09:22:34.539Z,12.50
2019-03-22T09:23:34.451Z,12.30
2019-03-22T09:24:39.364Z,12.00
2019-03-22T09:25:34.364Z,11.80
2019-03-22T09:26:46.887Z,11.30
2019-03-22T09:27:36.468Z,10.90
2019-03-22T09:28:34.271Z,11.20
2019-03-22T09:29:34.186Z,11.10
2019-03-22T09:30:34.134Z,11.50
2019-03-22T09:31:34.095Z,12.10
2019-03-22T09:32:34.122Z,11.70
2019-03-22T09:33:33.975Z,11.50
2019-03-22T09:34:34.280Z,12.00
2019-03-22T09:35:34.034Z,11.70
2019-03-22T09:36:33.833Z,11.40
2019-03-22T09:37:33.870Z,12.40
2019-03-22T09:38:33.756Z,12.10
2019-03-22T09:39:33.714Z,11.70
2019-03-22T09:40:33.652Z,12.10
2019-03-22T09:41:33.611Z,11.60
2019-03-22T09:42:33.564Z,11.30
2019-03-22T09:43:33.491Z,10.70
2019-03-22T09:44:42.904Z,11.20
2019-03-22T09:45:33.467Z,10.90
2019-03-22T09:46:33.695Z,11.20
2019-03-22T09:47:33.351Z,11.60
2019-03-22T09:48:33.430Z,11.60
2019-03-22T09:49:33.216Z,11.30
2019-03-22T09:50:33.175Z,11.80
2019-03-22T09:51:33.112Z,12.00
2019-03-22T09:52:33.812Z,11.40
2019-03-22T09:53:33.033Z,12.10
2019-03-22T09:54:32.991Z,12.00
2019-03-22T09:55:32.965Z,12.50
2019-03-22T09:56:41.934Z,11.40
2019-03-22T09:57:32.857Z,11.60
2019-03-22T09:58:32.840Z,12.40
2019-03-22T09:59:32.735Z,11.60
2019-03-22T10:00:32.697Z,11.80
2019-03-22T10:01:32.623Z,12.10
2019-03-22T10:02:32.626Z,12.20
2019-03-22T10:03:32.540Z,12.30
2019-03-22T10:04:32.501Z,12.30
2019-03-22T10:05:32.596Z,12.60
2019-03-22T10:06:32.408Z,12.30
2019-03-22T10:07:32.363Z,12.20
2019-03-22T10:08:32.289Z,11.60
2019-03-22T10:09:32.292Z,11.90
2019-03-22T10:10:32.199Z,11.70
2019-03-22T10:11:32.158Z,12.00
2019-03-22T10:12:32.125Z,12.00
2019-03-22T10:13:32.065Z,11.30
2019-03-22T10:14:32.024Z,11.80
2019-03-22T10:15:31.975Z,11.70
2019-03-22T10:16:31.930Z,11.70
2019-03-22T10:17:31.945Z,11.80
2019-03-22T10:18:31.839Z,11.40
2019-03-22T10:19:31.809Z,11.10
2019-03-22T10:20:31.789Z,10.80
2019-03-22T10:21:31.679Z,11.40
2019-03-22T10:22:31.663Z,11.10
2019-03-22T10:23:31.588Z,12.00
2019-03-22T10:24:31.664Z,11.90
2019-03-22T10:25:31.485Z,11.30
2019-03-22T10:26:31.590Z,11.10
2019-03-22T10:27:31.579Z,11.00
2019-03-22T10:28:31.324Z,10.50
2019-03-22T10:29:31.289Z,11.20
2019-03-22T10:30:31.296Z,10.90
2019-03-22T10:31:36.996Z,11.20
2019-03-22T10:32:31.177Z,10.70
2019-03-22T10:33:31.121Z,11.50
2019-03-22T10:34:31.192Z,12.00
2019-03-22T10:35:30.999Z,11.10
2019-03-22T10:36:30.973Z,10.80
2019-03-22T10:37:30.961Z,11.90
2019-03-22T10:38:32.089Z,11.50
2019-03-22T10:39:30.863Z,11.20
2019-03-22T10:40:30.754Z,11.00
2019-03-22T10:41:30.741Z,11.20
2019-03-22T10:42:30.670Z,10.90
2019-03-22T10:43:30.677Z,10.30
2019-03-22T10:44:30.569Z,10.00
2019-03-22T10:45:30.549Z,10.60
2019-03-22T10:46:30.447Z,9.90
2019-03-22T10:47:30.424Z,10.50
2019-03-22T10:48:30.387Z,9.60
2019-03-22T10:49:30.321Z,9.60
2019-03-22T10:50:30.301Z,9.20
2019-03-22T10:51:30.208Z,8.50
2019-03-22T10:52:30.180Z,9.00
2019-03-22T10:53:30.195Z,8.90
2019-03-22T10:54:30.208Z,8.80
2019-03-22T10:55:30.713Z,9.40
2019-03-22T10:56:29.969Z,9.40
2019-03-22T10:57:29.957Z,9.00
2019-03-22T10:58:29.921Z,8.40
2019-03-22T10:59:29.837Z,8.80
2019-03-22T11:00:29.790Z,9.50
2019-03-22T11:01:29.735Z,8.40
2019-03-22T11:02:29.746Z,8.80
2019-03-22T11:03:29.689Z,8.20
2019-03-22T11:04:29.687Z,8.50
2019-03-22T11:05:29.545Z,8.50
2019-03-22T11:06:29.491Z,7.70
2019-03-22T11:07:29.477Z,7.00
2019-03-22T11:08:29.442Z,7.10
2019-03-22T11:09:29.350Z,7.10
2019-03-22T11:10:29.343Z,7.10
2019-03-22T11:11:29.248Z,6.80
2019-03-22T11:12:29.241Z,7.00
2019-03-22T11:13:29.207Z,7.10
2019-03-22T11:14:29.115Z,7.30
2019-03-22T11:15:29.064Z,7.20
2019-03-22T11:16:29.035Z,7.10
2019-03-22T11:17:28.995Z,6.70
2019-03-22T11:18:37.078Z,6.60
2019-03-22T11:19:28.877Z,5.80
2019-03-22T11:20:28.813Z,6.20
2019-03-22T11:21:28.785Z,6.00
2019-03-22T11:22:28.758Z,5.90
2019-03-22T11:23:28.693Z,6.50
2019-03-22T11:24:28.630Z,6.40
2019-03-22T11:25:28.566Z,6.20
2019-03-22T11:26:28.539Z,6.80
2019-03-22T11:27:28.475Z,6.50
2019-03-22T11:28:28.468Z,6.60
2019-03-22T11:29:28.379Z,6.70
2019-03-22T11:30:28.337Z,6.70
2019-03-22T11:31:29.904Z,7.30
2019-03-22T11:32:28.239Z,7.10
2019-03-22T11:33:28.224Z,7.90
2019-03-22T11:34:28.135Z,7.70
2019-03-22T11:35:28.101Z,7.80
2019-03-22T11:36:28.060Z,6.90
2019-03-22T11:37:27.980Z,7.50
2019-03-22T11:38:27.985Z,6.80
2019-03-22T11:39:27.892Z,7.60
2019-03-22T11:40:27.877Z,7.90
2019-03-22T11:41:27.969Z,7.00
2019-03-22T11:42:27.851Z,7.30
2019-03-22T11:43:27.810Z,6.90
2019-03-22T11:44:27.664Z,7.20
2019-03-22T11:45:27.609Z,7.60
2019-03-22T11:46:27.608Z,7.70
2019-03-22T11:47:27.511Z,7.80
2019-03-22T11:48:27.531Z,7.10
2019-03-22T11:49:27.432Z,7.60
2019-03-22T11:50:28.931Z,7.00
2019-03-22T11:51:27.347Z,7.00
2019-03-22T11:52:27.289Z,7.30
2019-03-22T11:53:27.250Z,6.70
2019-03-22T11:54:27.183Z,6.70
2019-03-22T11:55:27.134Z,6.90
2019-03-22T11:56:27.076Z,6.90
2019-03-22T11:57:27.023Z,7.50
2019-03-22T11:58:27.026Z,7.60
2019-03-22T11:59:26.946Z,7.60
2019-03-22T12:00:26.889Z,7.90
2019-03-22T12:01:26.840Z,7.70
2019-03-22T12:02:26.789Z,7.30
2019-03-22T12:03:26.797Z,7.40
2019-03-22T12:04:26.707Z,7.30
2019-03-22T12:05:26.666Z,6.70
2019-03-22T12:06:27.403Z,6.50
2019-03-22T12:07:26.561Z,6.20
2019-03-22T12:08:26.543Z,6.10
2019-03-22T12:09:26.480Z,6.30
2019-03-22T12:10:26.410Z,7.10
2019-03-22T12:11:26.378Z,7.60
2019-03-22T12:12:26.332Z,8.10
2019-03-22T12:13:26.310Z,7.70
2019-03-22T12:14:26.237Z,7.50
2019-03-22T12:15:26.164Z,7.00
2019-03-22T12:16:26.118Z,8.20
2019-03-22T12:17:26.087Z,7.40
2019-03-22T12:18:26.059Z,7.60
2019-03-22T12:19:26.012Z,7.40
2019-03-22T12:20:25.923Z,6.90
2019-03-22T12:21:25.906Z,6.90
2019-03-22T12:22:25.837Z,6.70
2019-03-22T12:23:25.772Z,6.40
2019-03-22T12:24:25.757Z,5.50
2019-03-22T12:25:25.697Z,5.30
2019-03-22T12:26:25.659Z,5.30
2019-03-22T12:27:25.614Z,5.40
2019-03-22T12:28:25.550Z,5.80
2019-03-22T12:29:25.555Z,4.90
2019-03-22T12:30:25.447Z,5.70
2019-03-22T12:31:25.433Z,6.10
2019-03-22T12:32:32.151Z,5.50
2019-03-22T12:33:25.326Z,5.50
2019-03-22T12:34:25.313Z,5.60
2019-03-22T12:35:25.238Z,5.70
2019-03-22T12:36:25.168Z,5.60
2019-03-22T12:37:25.119Z,5.40
2019-03-22T12:38:25.063Z,4.90
2019-03-22T12:39:25.061Z,5.10
2019-03-22T12:40:24.997Z,5.20
2019-03-22T12:41:24.927Z,4.70
2019-03-22T12:42:24.877Z,4.50
2019-03-22T12:43:24.822Z,4.80
2019-03-22T12:44:24.818Z,5.00
2019-03-22T12:45:24.736Z,5.00
2019-03-22T12:46:24.692Z,5.60
2019-03-22T12:47:24.644Z,5.80
2019-03-22T12:48:24.589Z,6.60
2019-03-22T12:49:24.561Z,7.00
2019-03-22T12:50:24.510Z,7.30
2019-03-22T12:51:24.461Z,6.60
2019-03-22T12:52:24.394Z,6.70
2019-03-22T12:53:24.358Z,6.20
2019-03-22T12:54:24.318Z,6.90
2019-03-22T12:55:24.270Z,6.20